sensor_id;sensor_type;location;lat;lon;timestamp;P1;durP1;ratioP1;P2;durP2;ratioP2
57609;SDS011;43435;46.186;9.024;2024-03-02T00:00:22;8.38;;;5.28;;
57609;SDS011;43435;46.186;9.024;2024-03-02T00:02:48;6.72;;;4.80;;
57609;SDS011;43435;46.186;9.024;2024-03-02T00:05:16;8.90;;;5.60;;
57609;SDS011;43435;46.186;9.024;2024-03-02T00:07:43;6.95;;;5.07;;
57609;SDS011;43435;46.186;9.024;2024-03-02T00:10:14;8.23;;;5.18;;
57609;SDS011;43435;46.186;9.024;2024-03-02T00:12:44;6.45;;;4.43;;
57609;SDS011;43435;46.186;9.024;2024-03-02T00:15:25;7.28;;;5.13;;
57609;SDS011;43435;46.186;9.024;2024-03-02T00:18:11;7.00;;;4.60;;
57609;SDS011;43435;46.186;9.024;2024-03-02T00:20:37;7.75;;;5.07;;
57609;SDS011;43435;46.186;9.024;2024-03-02T00:23:04;8.27;;;4.75;;
57609;SDS011;43435;46.186;9.024;2024-03-02T00:25:50;6.95;;;4.22;;
57609;SDS011;43435;46.186;9.024;2024-03-02T00:28:29;6.60;;;4.55;;
57609;SDS011;43435;46.186;9.024;2024-03-02T00:30:55;7.82;;;4.95;;
57609;SDS011;43435;46.186;9.024;2024-03-02T00:33:30;7.60;;;4.78;;
57609;SDS011;43435;46.186;9.024;2024-03-02T00:35:57;10.13;;;4.80;;
57609;SDS011;43435;46.186;9.024;2024-03-02T00:38:22;8.35;;;4.93;;
57609;SDS011;43435;46.186;9.024;2024-03-02T00:40:48;7.07;;;4.60;;
57609;SDS011;43435;46.186;9.024;2024-03-02T00:43:21;9.25;;;5.30;;
57609;SDS011;43435;46.186;9.024;2024-03-02T00:45:54;7.45;;;4.78;;
57609;SDS011;43435;46.186;9.024;2024-03-02T00:48:19;8.35;;;5.22;;
57609;SDS011;43435;46.186;9.024;2024-03-02T00:50:44;9.25;;;5.82;;
57609;SDS011;43435;46.186;9.024;2024-03-02T00:53:17;7.20;;;5.03;;
57609;SDS011;43435;46.186;9.024;2024-03-02T00:55:48;8.43;;;4.93;;
57609;SDS011;43435;46.186;9.024;2024-03-02T00:58:14;8.20;;;5.30;;
57609;SDS011;43435;46.186;9.024;2024-03-02T01:00:39;8.00;;;5.18;;
57609;SDS011;43435;46.186;9.024;2024-03-02T01:03:04;6.20;;;4.60;;
57609;SDS011;43435;46.186;9.024;2024-03-02T01:05:29;8.07;;;5.22;;
57609;SDS011;43435;46.186;9.024;2024-03-02T01:07:55;9.68;;;4.75;;
57609;SDS011;43435;46.186;9.024;2024-03-02T01:10:20;6.68;;;5.10;;
57609;SDS011;43435;46.186;9.024;2024-03-02T01:12:45;7.43;;;4.78;;
57609;SDS011;43435;46.186;9.024;2024-03-02T01:15:11;6.07;;;3.78;;
57609;SDS011;43435;46.186;9.024;2024-03-02T01:17:36;6.07;;;4.03;;
57609;SDS011;43435;46.186;9.024;2024-03-02T01:20:01;8.00;;;4.18;;
57609;SDS011;43435;46.186;9.024;2024-03-02T01:22:27;8.80;;;4.28;;
57609;SDS011;43435;46.186;9.024;2024-03-02T01:24:52;5.38;;;3.75;;
57609;SDS011;43435;46.186;9.024;2024-03-02T01:27:17;6.30;;;3.72;;
57609;SDS011;43435;46.186;9.024;2024-03-02T01:29:43;4.32;;;3.33;;
57609;SDS011;43435;46.186;9.024;2024-03-02T01:32:09;4.68;;;3.85;;
57609;SDS011;43435;46.186;9.024;2024-03-02T01:34:34;7.00;;;3.63;;
57609;SDS011;43435;46.186;9.024;2024-03-02T01:36:59;4.75;;;3.00;;
57609;SDS011;43435;46.186;9.024;2024-03-02T01:39:24;5.22;;;2.92;;
57609;SDS011;43435;46.186;9.024;2024-03-02T01:41:50;7.72;;;3.25;;
57609;SDS011;43435;46.186;9.024;2024-03-02T01:44:15;4.18;;;3.10;;
57609;SDS011;43435;46.186;9.024;2024-03-02T01:46:40;4.45;;;2.88;;
57609;SDS011;43435;46.186;9.024;2024-03-02T01:49:06;4.93;;;3.13;;
57609;SDS011;43435;46.186;9.024;2024-03-02T01:51:31;5.07;;;3.15;;
57609;SDS011;43435;46.186;9.024;2024-03-02T01:53:56;5.57;;;3.38;;
57609;SDS011;43435;46.186;9.024;2024-03-02T01:56:22;4.43;;;2.75;;
57609;SDS011;43435;46.186;9.024;2024-03-02T01:58:47;4.68;;;2.97;;
57609;SDS011;43435;46.186;9.024;2024-03-02T02:01:12;4.82;;;3.00;;
57609;SDS011;43435;46.186;9.024;2024-03-02T02:03:37;4.55;;;2.40;;
57609;SDS011;43435;46.186;9.024;2024-03-02T02:06:03;3.88;;;2.60;;
57609;SDS011;43435;46.186;9.024;2024-03-02T02:08:28;4.75;;;2.40;;
57609;SDS011;43435;46.186;9.024;2024-03-02T02:10:54;4.20;;;2.65;;
57609;SDS011;43435;46.186;9.024;2024-03-02T02:13:19;5.65;;;2.83;;
57609;SDS011;43435;46.186;9.024;2024-03-02T02:15:44;4.78;;;2.47;;
57609;SDS011;43435;46.186;9.024;2024-03-02T02:18:10;4.30;;;2.22;;
57609;SDS011;43435;46.186;9.024;2024-03-02T02:20:35;3.78;;;1.95;;
57609;SDS011;43435;46.186;9.024;2024-03-02T02:23:01;2.45;;;1.80;;
57609;SDS011;43435;46.186;9.024;2024-03-02T02:25:28;2.80;;;1.75;;
57609;SDS011;43435;46.186;9.024;2024-03-02T02:27:54;3.72;;;2.25;;
57609;SDS011;43435;46.186;9.024;2024-03-02T02:30:21;4.65;;;2.28;;
57609;SDS011;43435;46.186;9.024;2024-03-02T02:32:48;3.08;;;2.40;;
57609;SDS011;43435;46.186;9.024;2024-03-02T02:35:14;5.07;;;3.33;;
57609;SDS011;43435;46.186;9.024;2024-03-02T02:37:39;6.32;;;3.97;;
57609;SDS011;43435;46.186;9.024;2024-03-02T02:40:05;4.68;;;3.30;;
57609;SDS011;43435;46.186;9.024;2024-03-02T02:42:30;5.28;;;3.15;;
57609;SDS011;43435;46.186;9.024;2024-03-02T02:44:56;5.63;;;3.30;;
57609;SDS011;43435;46.186;9.024;2024-03-02T02:47:21;5.63;;;3.15;;
57609;SDS011;43435;46.186;9.024;2024-03-02T02:49:46;6.25;;;3.22;;
57609;SDS011;43435;46.186;9.024;2024-03-02T02:52:12;6.85;;;3.83;;
57609;SDS011;43435;46.186;9.024;2024-03-02T02:54:37;5.53;;;3.47;;
57609;SDS011;43435;46.186;9.024;2024-03-02T02:57:03;5.95;;;3.63;;
57609;SDS011;43435;46.186;9.024;2024-03-02T02:59:28;5.80;;;3.70;;
57609;SDS011;43435;46.186;9.024;2024-03-02T03:01:53;6.78;;;3.95;;
57609;SDS011;43435;46.186;9.024;2024-03-02T03:04:19;6.88;;;4.50;;
57609;SDS011;43435;46.186;9.024;2024-03-02T03:06:44;6.15;;;3.58;;
57609;SDS011;43435;46.186;9.024;2024-03-02T03:09:09;6.10;;;3.75;;
57609;SDS011;43435;46.186;9.024;2024-03-02T03:11:36;6.85;;;3.50;;
57609;SDS011;43435;46.186;9.024;2024-03-02T03:14:01;5.95;;;3.67;;
57609;SDS011;43435;46.186;9.024;2024-03-02T03:16:26;7.10;;;3.70;;
57609;SDS011;43435;46.186;9.024;2024-03-02T03:18:52;6.18;;;3.80;;
57609;SDS011;43435;46.186;9.024;2024-03-02T03:21:18;9.60;;;4.10;;
57609;SDS011;43435;46.186;9.024;2024-03-02T03:23:43;7.93;;;4.72;;
57609;SDS011;43435;46.186;9.024;2024-03-02T03:26:09;7.95;;;5.18;;
57609;SDS011;43435;46.186;9.024;2024-03-02T03:28:34;8.13;;;4.32;;
57609;SDS011;43435;46.186;9.024;2024-03-02T03:30:59;7.15;;;4.53;;
57609;SDS011;43435;46.186;9.024;2024-03-02T03:33:24;8.35;;;5.57;;
57609;SDS011;43435;46.186;9.024;2024-03-02T03:35:50;8.45;;;5.20;;
57609;SDS011;43435;46.186;9.024;2024-03-02T03:38:15;9.80;;;5.47;;
57609;SDS011;43435;46.186;9.024;2024-03-02T03:40:41;7.65;;;4.68;;
57609;SDS011;43435;46.186;9.024;2024-03-02T03:43:06;8.25;;;4.78;;
57609;SDS011;43435;46.186;9.024;2024-03-02T03:45:32;10.80;;;5.43;;
57609;SDS011;43435;46.186;9.024;2024-03-02T03:47:57;8.43;;;5.60;;
57609;SDS011;43435;46.186;9.024;2024-03-02T03:50:22;11.02;;;6.57;;
57609;SDS011;43435;46.186;9.024;2024-03-02T03:52:48;8.55;;;4.88;;
57609;SDS011;43435;46.186;9.024;2024-03-02T03:55:13;10.38;;;6.20;;
57609;SDS011;43435;46.186;9.024;2024-03-02T03:57:38;7.93;;;5.35;;
57609;SDS011;43435;46.186;9.024;2024-03-02T04:00:04;8.15;;;5.13;;
57609;SDS011;43435;46.186;9.024;2024-03-02T04:02:29;7.97;;;5.20;;
57609;SDS011;43435;46.186;9.024;2024-03-02T04:04:55;7.65;;;4.80;;
57609;SDS011;43435;46.186;9.024;2024-03-02T04:07:20;8.55;;;5.30;;
57609;SDS011;43435;46.186;9.024;2024-03-02T04:09:45;8.38;;;4.80;;
57609;SDS011;43435;46.186;9.024;2024-03-02T04:12:10;10.18;;;5.85;;
57609;SDS011;43435;46.186;9.024;2024-03-02T04:14:38;9.95;;;5.78;;
57609;SDS011;43435;46.186;9.024;2024-03-02T04:17:03;8.68;;;5.63;;
57609;SDS011;43435;46.186;9.024;2024-03-02T04:19:28;8.07;;;5.28;;
57609;SDS011;43435;46.186;9.024;2024-03-02T04:21:54;7.40;;;5.10;;
57609;SDS011;43435;46.186;9.024;2024-03-02T04:24:19;8.35;;;5.13;;
57609;SDS011;43435;46.186;9.024;2024-03-02T04:26:44;9.05;;;5.40;;
57609;SDS011;43435;46.186;9.024;2024-03-02T04:29:09;10.38;;;4.88;;
57609;SDS011;43435;46.186;9.024;2024-03-02T04:31:35;8.85;;;5.18;;
57609;SDS011;43435;46.186;9.024;2024-03-02T04:34:00;8.48;;;5.05;;
57609;SDS011;43435;46.186;9.024;2024-03-02T04:36:25;8.75;;;4.88;;
57609;SDS011;43435;46.186;9.024;2024-03-02T04:38:51;7.70;;;5.05;;
57609;SDS011;43435;46.186;9.024;2024-03-02T04:41:16;8.93;;;5.03;;
57609;SDS011;43435;46.186;9.024;2024-03-02T04:43:42;9.27;;;4.32;;
57609;SDS011;43435;46.186;9.024;2024-03-02T04:46:07;8.15;;;5.47;;
57609;SDS011;43435;46.186;9.024;2024-03-02T04:48:32;8.05;;;4.88;;
57609;SDS011;43435;46.186;9.024;2024-03-02T04:50:58;9.55;;;4.88;;
57609;SDS011;43435;46.186;9.024;2024-03-02T04:53:23;8.52;;;5.07;;
57609;SDS011;43435;46.186;9.024;2024-03-02T04:55:49;6.70;;;4.93;;
57609;SDS011;43435;46.186;9.024;2024-03-02T04:58:32;7.65;;;4.55;;
57609;SDS011;43435;46.186;9.024;2024-03-02T05:00:57;7.15;;;4.93;;
57609;SDS011;43435;46.186;9.024;2024-03-02T05:03:23;8.63;;;5.32;;
57609;SDS011;43435;46.186;9.024;2024-03-02T05:05:49;8.85;;;5.10;;
57609;SDS011;43435;46.186;9.024;2024-03-02T05:08:14;9.55;;;5.50;;
57609;SDS011;43435;46.186;9.024;2024-03-02T05:10:41;7.85;;;4.88;;
57609;SDS011;43435;46.186;9.024;2024-03-02T05:13:06;8.88;;;5.40;;
57609;SDS011;43435;46.186;9.024;2024-03-02T05:15:32;9.60;;;5.80;;
57609;SDS011;43435;46.186;9.024;2024-03-02T05:17:57;8.20;;;5.32;;
57609;SDS011;43435;46.186;9.024;2024-03-02T05:20:24;7.88;;;5.05;;
57609;SDS011;43435;46.186;9.024;2024-03-02T05:22:49;9.50;;;5.30;;
57609;SDS011;43435;46.186;9.024;2024-03-02T05:25:15;8.27;;;5.03;;
57609;SDS011;43435;46.186;9.024;2024-03-02T05:27:40;8.43;;;5.13;;
57609;SDS011;43435;46.186;9.024;2024-03-02T05:30:06;9.93;;;5.47;;
57609;SDS011;43435;46.186;9.024;2024-03-02T05:32:32;9.10;;;5.10;;
57609;SDS011;43435;46.186;9.024;2024-03-02T05:34:58;9.57;;;5.30;;
57609;SDS011;43435;46.186;9.024;2024-03-02T05:37:23;8.77;;;5.35;;
57609;SDS011;43435;46.186;9.024;2024-03-02T05:39:48;8.07;;;5.43;;
57609;SDS011;43435;46.186;9.024;2024-03-02T05:42:13;8.43;;;4.88;;
57609;SDS011;43435;46.186;9.024;2024-03-02T05:44:39;9.88;;;5.35;;
57609;SDS011;43435;46.186;9.024;2024-03-02T05:47:05;8.98;;;5.53;;
57609;SDS011;43435;46.186;9.024;2024-03-02T05:49:32;10.52;;;5.45;;
57609;SDS011;43435;46.186;9.024;2024-03-02T05:51:57;10.23;;;5.47;;
57609;SDS011;43435;46.186;9.024;2024-03-02T05:54:23;8.27;;;5.13;;
57609;SDS011;43435;46.186;9.024;2024-03-02T05:56:48;7.60;;;5.10;;
57609;SDS011;43435;46.186;9.024;2024-03-02T05:59:13;8.05;;;5.40;;
57609;SDS011;43435;46.186;9.024;2024-03-02T06:04:08;8.38;;;4.93;;
57609;SDS011;43435;46.186;9.024;2024-03-02T07:09:44;9.07;;;4.93;;
57609;SDS011;43435;46.186;9.024;2024-03-02T07:12:09;7.47;;;4.63;;
57609;SDS011;43435;46.186;9.024;2024-03-02T07:14:35;8.10;;;4.78;;
57609;SDS011;43435;46.186;9.024;2024-03-02T07:17:21;8.60;;;4.82;;
57609;SDS011;43435;46.186;9.024;2024-03-02T07:19:47;7.75;;;5.13;;
57609;SDS011;43435;46.186;9.024;2024-03-02T07:22:12;7.85;;;4.47;;
